Time;durP1;ratioP1;P1;durP2;ratioP2;P2;SDS_P1;SDS_P2;PMS_P1;PMS_P2;Temp;Humidity;BMP_temperature;BMP_pressure;BME280_temperature;BME280_humidity;BME280_pressure;Samples;Min_cycle;Max_cycle;Signal;HPM_P1;HPM_P2
2024/02/25 00:00:57;;;;;;;10.20;8.00;;;;;;;7.51;77.34;100150.77;106191;1253;72506;-77
2024/02/25 00:03:24;;;;;;;10.50;7.60;;;;;;;7.46;77.32;100141.16;106026;1252;59704;-78
2024/02/25 00:05:51;;;;;;;11.30;7.20;;;;;;;7.42;77.47;100140.54;106006;1253;60325;-76
2024/02/25 00:08:18;;;;;;;10.60;7.90;;;;;;;7.39;77.54;100142.54;106178;1255;72864;-78
2024/02/25 00:10:44;;;;;;;9.90;7.10;;;;;;;7.37;77.88;100154.52;106113;1251;70410;-78
2024/02/25 00:13:11;;;;;;;10.10;6.90;;;;;;;7.41;77.86;100155.27;106061;1253;72542;-75
2024/02/25 00:15:38;;;;;;;10.20;7.00;;;;;;;7.44;77.85;100158.35;105929;1253;60402;-76
2024/02/25 00:18:04;;;;;;;9.60;8.10;;;;;;;7.40;77.88;100156.73;105822;1253;59635;-76
2024/02/25 00:20:31;;;;;;;13.10;7.70;;;;;;;7.35;77.99;100155.48;106178;1253;73096;-77
2024/02/25 00:22:58;;;;;;;11.00;7.80;;;;;;;7.29;78.15;100156.27;106450;1255;69258;-76
2024/02/25 00:25:24;;;;;;;10.70;6.90;;;;;;;7.25;78.23;100151.42;105963;1251;59709;-77
2024/02/25 00:27:51;;;;;;;11.90;7.20;;;;;;;7.27;78.19;100150.63;105838;1254;61838;-75
2024/02/25 00:30:18;;;;;;;10.70;7.10;;;;;;;7.29;78.26;100152.59;106099;1251;60200;-73
2024/02/25 00:32:44;;;;;;;10.50;7.70;;;;;;;7.23;78.51;100152.98;106117;1254;72707;-77
2024/02/25 00:35:12;;;;;;;10.60;7.50;;;;;;;7.16;78.42;100147.42;106148;1253;70076;-77
2024/02/25 00:37:41;;;;;;;11.40;8.30;;;;;;;7.12;78.48;100151.84;105886;1256;72685;-76
2024/02/25 00:40:09;;;;;;;11.20;7.30;;;;;;;7.07;78.68;100148.85;105976;1256;59836;-76
2024/02/25 00:42:36;;;;;;;9.80;7.00;;;;;;;7.14;78.69;100156.27;106003;1251;60125;-77
2024/02/25 00:45:04;;;;;;;12.20;7.40;;;;;;;7.17;78.46;100160.86;106383;1254;72777;-78
2024/02/25 00:47:31;;;;;;;13.80;8.00;;;;;;;7.14;78.69;100162.74;108436;1251;69300;-75
2024/02/25 00:49:58;;;;;;;11.50;7.50;;;;;;;7.08;78.64;100156.37;108486;1252;71584;-74
2024/02/25 00:52:26;;;;;;;12.80;7.90;;;;;;;7.05;78.67;100166.20;106753;1251;60274;-75
2024/02/25 00:54:52;;;;;;;12.40;8.20;;;;;;;7.01;78.57;100156.65;106393;1253;59605;-78
2024/02/25 00:57:19;;;;;;;10.70;7.00;;;;;;;7.07;78.65;100157.72;106744;1255;73122;-79
2024/02/25 00:59:46;;;;;;;12.20;7.60;;;;;;;7.11;78.38;100157.38;106723;1251;69129;-78
2024/02/25 01:02:12;;;;;;;11.80;8.00;;;;;;;7.06;78.22;100163.92;107236;1253;72854;-74
2024/02/25 01:04:39;;;;;;;10.50;8.00;;;;;;;7.02;78.41;100164.69;107948;1253;59721;-76
2024/02/25 01:07:05;;;;;;;12.20;7.80;;;;;;;6.96;78.44;100166.65;106758;1255;59605;-76
2024/02/25 01:09:32;;;;;;;14.70;7.60;;;;;;;6.95;78.49;100165.70;106479;1256;59685;-75
2024/02/25 01:11:59;;;;;;;10.90;7.20;;;;;;;7.01;78.37;100162.15;106480;1256;70344;-76
2024/02/25 01:14:25;;;;;;;12.90;7.70;;;;;;;7.01;78.25;100167.73;106602;1256;71748;-75
2024/02/25 01:16:54;;;;;;;11.90;8.20;;;;;;;6.97;78.24;100165.84;107559;1255;59512;-76
2024/02/25 01:19:21;;;;;;;12.80;8.60;;;;;;;6.94;78.45;100162.78;107731;1251;59551;-77
2024/02/25 01:21:48;;;;;;;13.00;8.30;;;;;;;6.91;78.27;100163.15;106714;1252;71626;-76
2024/02/25 01:24:14;;;;;;;14.70;8.30;;;;;;;6.89;78.34;100169.11;106753;1253;68870;-78
2024/02/25 01:26:41;;;;;;;12.10;7.60;;;;;;;6.95;78.11;100176.93;106655;1256;72792;-78
2024/02/25 01:29:08;;;;;;;12.80;8.10;;;;;;;6.98;77.88;100164.67;106545;1256;59801;-79
2024/02/25 01:31:45;;;;;;;13.60;8.80;;;;;;;6.96;78.09;100163.77;107105;1254;59727;-79
2024/02/25 01:34:11;;;;;;;12.20;8.20;;;;;;;6.94;77.96;100169.63;106120;1251;71759;-77
2024/02/25 01:36:42;;;;;;;12.20;9.20;;;;;;;6.90;77.67;100165.36;106782;1251;70362;-76
2024/02/25 01:39:09;;;;;;;13.90;7.80;;;;;;;6.86;77.82;100164.94;107730;1251;72546;-75
2024/02/25 01:41:36;;;;;;;12.30;8.30;;;;;;;6.93;77.70;100167.73;108612;1251;61750;-75
2024/02/25 01:44:03;;;;;;;11.60;8.20;;;;;;;6.99;77.33;100166.13;109255;1251;58990;-75
2024/02/25 01:46:30;;;;;;;12.60;8.90;;;;;;;6.97;77.23;100169.17;109266;1257;71852;-75
2024/02/25 01:48:57;;;;;;;15.10;9.20;;;;;;;6.93;77.24;100174.28;108275;1251;70199;-80
2024/02/25 01:51:25;;;;;;;13.00;8.90;;;;;;;6.91;76.95;100179.59;106701;1252;71778;-79
2024/02/25 01:53:55;;;;;;;14.70;8.90;;;;;;;6.88;76.91;100184.35;107084;1252;61988;-78
2024/02/25 01:56:21;;;;;;;14.40;8.70;;;;;;;6.92;76.96;100183.37;106715;1256;59694;-78
2024/02/25 01:58:52;;;;;;;13.80;8.60;;;;;;;6.94;76.86;100180.69;106792;1253;72860;-78
2024/02/25 02:01:19;;;;;;;14.20;9.40;;;;;;;6.89;76.58;100184.10;107116;1251;70116;-78
2024/02/25 02:03:46;;;;;;;14.30;8.80;;;;;;;6.85;76.79;100176.31;107109;1253;59243;-76
2024/02/25 02:06:12;;;;;;;12.70;8.30;;;;;;;6.84;76.70;100175.23;106687;1251;60223;-75
2024/02/25 02:08:39;;;;;;;11.10;8.50;;;;;;;6.82;76.63;100175.00;107595;1256;60462;-77
2024/02/25 02:11:16;;;;;;;12.60;8.80;;;;;;;6.86;76.45;100178.17;108483;1253;71734;-74
2024/02/25 02:13:44;;;;;;;11.10;8.30;;;;;;;6.95;75.98;100178.85;108760;1251;69257;-77
2024/02/25 02:16:14;;;;;;;12.50;8.60;;;;;;;6.92;75.74;100169.29;107964;1253;72794;-76
2024/02/25 02:18:41;;;;;;;13.40;9.20;;;;;;;6.90;75.91;100170.66;107612;1254;59630;-76
2024/02/25 02:21:18;;;;;;;12.10;9.00;;;;;;;6.86;75.40;100185.77;106678;1256;59593;-74
2024/02/25 02:23:44;;;;;;;14.50;9.20;;;;;;;6.80;75.45;100178.23;106661;1253;72916;-74
2024/02/25 02:26:11;;;;;;;12.80;8.90;;;;;;;6.78;75.43;100181.77;106614;1256;70123;-75
2024/02/25 02:28:38;;;;;;;13.80;8.70;;;;;;;6.83;75.27;100181.29;106834;1253;71206;-77
2024/02/25 02:31:04;;;;;;;11.60;8.20;;;;;;;6.83;75.07;100180.89;107093;1251;59185;-78
2024/02/25 02:33:31;;;;;;;14.60;9.30;;;;;;;6.80;75.13;100196.90;108350;1253;59612;-75
2024/02/25 02:35:58;;;;;;;13.50;8.60;;;;;;;6.75;75.35;100172.44;108743;1254;71739;-76
2024/02/25 02:38:25;;;;;;;13.90;9.10;;;;;;;6.75;75.26;100166.37;108537;1251;68767;-74
2024/02/25 02:40:51;;;;;;;21.00;9.10;;;;;;;6.75;75.25;100171.08;109340;1253;70206;-75
2024/02/25 02:43:18;;;;;;;15.20;9.30;;;;;;;6.83;75.05;100172.86;108525;1253;61425;-74
2024/02/25 02:45:45;;;;;;;12.00;8.80;;;;;;;6.86;74.81;100172.54;107797;1257;59999;-77
2024/02/25 02:48:11;;;;;;;14.30;9.10;;;;;;;6.84;75.03;100175.75;108023;1253;72323;-74
2024/02/25 02:50:39;;;;;;;16.40;10.20;;;;;;;6.81;74.91;100169.68;107681;1254;68731;-77
2024/02/25 02:53:06;;;;;;;15.90;9.20;;;;;;;6.78;75.01;100177.13;107545;1256;70118;-77
2024/02/25 02:55:33;;;;;;;13.30;9.20;;;;;;;6.75;74.96;100172.31;107208;1256;60338;-77
2024/02/25 02:57:59;;;;;;;11.90;8.30;;;;;;;6.73;74.92;100177.79;108098;1251;59252;-77
2024/02/25 03:00:28;;;;;;;13.10;9.10;;;;;;;6.77;74.78;100170.55;107608;1256;73916;-77
2024/02/25 03:02:54;;;;;;;12.10;8.70;;;;;;;6.81;74.86;100176.16;107444;1253;68945;-77
2024/02/25 03:05:21;;;;;;;14.60;9.50;;;;;;;6.78;74.85;100164.11;108466;1254;71203;-77
2024/02/25 03:07:53;;;;;;;15.00;9.50;;;;;;;6.73;75.06;100158.80;109130;1252;58936;-79
2024/02/25 03:10:22;;;;;;;15.50;9.20;;;;;;;6.71;75.20;100154.58;107449;1251;59244;-75
2024/02/25 03:12:50;;;;;;;12.40;8.70;;;;;;;6.68;75.07;100154.58;106887;1257;72556;-75
2024/02/25 03:15:17;;;;;;;17.40;10.00;;;;;;;6.64;75.05;100153.16;106703;1257;70166;-76
2024/02/25 03:17:45;;;;;;;12.90;8.70;;;;;;;6.67;74.91;100153.81;107887;1251;71450;-75
2024/02/25 03:20:13;;;;;;;15.90;9.40;;;;;;;6.74;75.08;100152.65;106556;1255;60441;-75
2024/02/25 03:22:40;;;;;;;13.40;8.90;;;;;;;6.75;74.81;100154.52;106593;1255;60540;-76
2024/02/25 03:25:11;;;;;;;13.90;8.90;;;;;;;6.70;74.98;100159.67;106685;1254;60371;-76
2024/02/25 03:27:38;;;;;;;16.20;10.00;;;;;;;6.63;75.10;100165.39;108119;1254;68076;-76
2024/02/25 03:30:07;;;;;;;12.90;9.70;;;;;;;6.59;75.19;100172.63;108930;1256;58896;-74
2024/02/25 03:32:35;;;;;;;15.10;9.90;;;;;;;6.55;75.32;100179.80;107944;1255;60332;-75
2024/02/25 03:35:02;;;;;;;15.00;9.90;;;;;;;6.60;75.34;100175.85;109047;1253;59154;-76
2024/02/25 03:37:28;;;;;;;13.80;8.20;;;;;;;6.66;75.32;100182.91;107987;1256;72430;-75
2024/02/25 03:39:55;;;;;;;13.50;9.40;;;;;;;6.64;75.45;100180.28;107156;1256;60283;-75
2024/02/25 03:42:24;;;;;;;15.40;9.70;;;;;;;6.60;75.14;100179.43;106663;1257;71493;-77
2024/02/25 03:44:50;;;;;;;14.90;10.10;;;;;;;6.56;75.36;100172.34;106433;1264;60354;-74
2024/02/25 03:47:17;;;;;;;15.90;10.30;;;;;;;6.54;75.57;100167.47;106184;1251;60547;-76
2024/02/25 03:49:44;;;;;;;15.90;9.10;;;;;;;6.50;75.58;100166.71;106740;1256;72433;-77
2024/02/25 03:52:12;;;;;;;14.60;9.60;;;;;;;6.53;75.70;100169.65;107029;1256;60415;-75
2024/02/25 03:54:38;;;;;;;13.30;10.00;;;;;;;6.58;75.57;100168.70;106664;1254;72334;-76
2024/02/25 03:57:05;;;;;;;15.70;10.50;;;;;;;6.55;75.68;100172.30;106209;1254;60450;-76
2024/02/25 03:59:32;;;;;;;16.10;10.80;;;;;;;6.49;75.73;100170.63;106602;1251;60414;-78
2024/02/25 04:01:58;;;;;;;16.40;10.50;;;;;;;6.44;75.87;100165.82;108852;1256;72270;-75
2024/02/25 04:04:25;;;;;;;13.10;9.40;;;;;;;6.39;75.97;100167.09;106619;1256;70102;-79
2024/02/25 04:06:51;;;;;;;15.10;10.70;;;;;;;6.37;76.14;100166.25;106275;1251;71449;-78
2024/02/25 04:09:18;;;;;;;16.20;10.40;;;;;;;6.42;76.03;100170.70;106556;1257;60415;-75
2024/02/25 04:11:45;;;;;;;14.10;10.40;;;;;;;6.42;76.10;100169.31;107484;1256;60444;-81
2024/02/25 04:14:12;;;;;;;15.90;10.30;;;;;;;6.39;76.17;100171.38;106171;1256;72689;-76
2024/02/25 04:16:38;;;;;;;17.70;11.50;;;;;;;6.34;76.17;100176.68;106151;1251;70018;-76
2024/02/25 04:19:05;;;;;;;17.10;11.10;;;;;;;6.28;76.41;100174.34;106222;1252;72487;-75
2024/02/25 04:21:32;;;;;;;18.10;11.00;;;;;;;6.29;76.35;100171.63;108358;1251;61066;-74
2024/02/25 04:23:58;;;;;;;16.10;10.90;;;;;;;6.36;76.21;100175.14;109233;1251;59001;-76
2024/02/25 04:26:25;;;;;;;15.60;11.00;;;;;;;6.36;76.26;100181.61;106968;1257;72379;-78
2024/02/25 04:28:52;;;;;;;15.20;10.20;;;;;;;6.35;76.19;100181.71;107523;1256;69279;-77
2024/02/25 04:31:19;;;;;;;18.20;11.80;;;;;;;6.33;76.29;100182.24;107323;1251;72754;-76
2024/02/25 04:33:46;;;;;;;14.60;10.90;;;;;;;6.31;76.41;100188.02;106191;1254;60444;-78
2024/02/25 04:36:16;;;;;;;17.60;11.30;;;;;;;6.30;76.39;100199.55;105921;1257;60360;-77
2024/02/25 04:38:43;;;;;;;16.40;10.20;;;;;;;6.35;76.19;100194.00;106062;1256;74330;-76
2024/02/25 04:41:10;;;;;;;16.00;10.40;;;;;;;6.40;76.00;100194.63;105929;1257;69018;-76
2024/02/25 04:43:36;;;;;;;16.20;11.60;;;;;;;6.37;76.17;100195.20;105961;1264;60534;-80
2024/02/25 04:46:03;;;;;;;16.90;11.00;;;;;;;6.35;76.12;100199.80;106079;1254;60521;-79
2024/02/25 04:48:29;;;;;;;17.00;12.00;;;;;;;6.33;76.17;100202.79;106055;1254;60533;-78
2024/02/25 04:50:56;;;;;;;18.00;11.60;;;;;;;6.31;76.08;100205.11;106068;1251;73516;-78
2024/02/25 04:53:25;;;;;;;16.20;10.90;;;;;;;6.27;76.11;100200.36;106174;1251;69999;-79
2024/02/25 04:55:52;;;;;;;15.90;10.80;;;;;;;6.31;75.98;100199.61;106528;1257;71770;-81
2024/02/25 04:58:19;;;;;;;13.10;9.40;;;;;;;6.39;75.85;100200.58;107150;1254;60350;-77
2024/02/25 05:00:46;;;;;;;14.00;10.30;;;;;;;6.39;75.78;100201.58;106585;1256;60396;-78
2024/02/25 05:03:12;;;;;;;14.90;10.80;;;;;;;6.37;75.76;100194.59;106054;1256;73565;-80
2024/02/25 05:05:39;;;;;;;15.80;10.10;;;;;;;6.34;75.83;100197.13;106147;1251;60411;-79
2024/02/25 05:08:05;;;;;;;16.40;10.80;;;;;;;6.30;75.67;100201.07;106071;1255;60526;-75
2024/02/25 05:10:32;;;;;;;14.10;10.00;;;;;;;6.26;75.61;100194.55;106077;1255;60503;-77
2024/02/25 05:12:59;;;;;;;16.20;10.20;;;;;;;6.23;75.63;100195.53;106188;1251;60364;-81
2024/02/25 05:15:27;;;;;;;14.00;9.50;;;;;;;6.28;75.56;100197.20;109092;1251;73825;-79
2024/02/25 05:17:54;;;;;;;15.60;9.50;;;;;;;6.35;75.22;100198.76;109374;1254;68773;-75
2024/02/25 05:20:21;;;;;;;15.10;9.00;;;;;;;6.35;75.27;100198.27;106345;1254;71161;-76
2024/02/25 05:22:48;;;;;;;12.60;9.50;;;;;;;6.32;75.28;100202.17;106785;1254;60406;-80
2024/02/25 05:25:14;;;;;;;13.70;9.50;;;;;;;6.29;75.26;100208.91;107691;1251;60479;-82
2024/02/25 05:27:41;;;;;;;15.30;9.30;;;;;;;6.25;75.06;100214.15;107618;1254;72559;-78
2024/02/25 05:30:09;;;;;;;16.70;10.20;;;;;;;6.22;75.08;100211.14;106198;1251;70152;-78
2024/02/25 05:32:36;;;;;;;15.70;8.90;;;;;;;6.19;75.13;100215.94;106065;1251;72698;-78
2024/02/25 05:35:05;;;;;;;13.70;9.30;;;;;;;6.25;75.02;100217.17;106035;1251;62333;-79
2024/02/25 05:37:34;;;;;;;15.90;9.40;;;;;;;6.31;74.71;100223.89;105861;1252;61079;-80
2024/02/25 05:40:00;;;;;;;15.70;9.70;;;;;;;6.28;74.65;100226.25;106338;1257;72352;-78
2024/02/25 05:42:27;;;;;;;13.00;9.20;;;;;;;6.24;74.73;100224.81;107844;1251;68718;-77
2024/02/25 05:44:54;;;;;;;12.20;8.30;;;;;;;6.22;74.57;100222.04;107950;1254;71904;-79
2024/02/25 05:47:21;;;;;;;12.40;9.00;;;;;;;6.20;74.57;100231.55;106324;1254;60537;-79
2024/02/25 05:49:48;;;;;;;12.20;8.50;;;;;;;6.16;74.33;100229.73;106160;1252;60537;-81
2024/02/25 05:52:17;;;;;;;11.50;8.40;;;;;;;6.12;74.41;100230.25;106822;1256;71512;-77
2024/02/25 05:54:44;;;;;;;16.10;7.90;;;;;;;6.18;74.23;100223.59;106308;1251;70337;-77
2024/02/25 05:57:10;;;;;;;10.80;7.20;;;;;;;6.23;73.92;100227.76;105800;1260;71095;-79
2024/02/25 05:59:37;;;;;;;11.30;7.70;;;;;;;6.18;73.85;100224.08;105955;1254;60332;-79
2024/02/25 06:02:04;;;;;;;11.90;8.10;;;;;;;6.15;73.79;100223.00;106018;1256;60405;-78
2024/02/25 06:04:33;;;;;;;10.70;7.10;;;;;;;6.11;73.68;100222.97;106034;1258;73839;-77
2024/02/25 06:06:59;;;;;;;12.10;7.60;;;;;;;6.05;73.54;100225.84;106164;1257;70892;-77
2024/02/25 06:09:26;;;;;;;12.80;7.00;;;;;;;5.98;73.71;100229.42;109142;1251;71676;-75
2024/02/25 06:11:53;;;;;;;10.40;6.60;;;;;;;5.97;73.75;100230.62;108796;1251;60515;-75
2024/02/25 06:14:20;;;;;;;9.70;6.80;;;;;;;6.05;73.73;100223.59;106216;1252;61495;-75
2024/02/25 06:16:47;;;;;;;15.10;7.10;;;;;;;6.07;73.58;100226.27;106114;1255;73822;-77
2024/02/25 06:19:13;;;;;;;12.90;6.70;;;;;;;6.03;73.27;100223.05;106290;1251;70100;-76
2024/02/25 06:21:46;;;;;;;10.80;7.10;;;;;;;5.97;73.14;100218.61;106089;1251;72401;-76
2024/02/25 06:24:13;;;;;;;13.30;6.80;;;;;;;5.90;73.09;100223.01;105914;1254;60526;-76
2024/02/25 06:26:46;;;;;;;9.60;7.40;;;;;;;5.86;73.24;100215.10;106036;1254;60421;-74
2024/02/25 06:29:13;;;;;;;8.20;6.10;;;;;;;5.84;73.36;100220.86;105882;1256;72407;-76
2024/02/25 06:31:39;;;;;;;9.60;5.60;;;;;;;5.91;73.01;100227.34;106311;1251;70548;-75
2024/02/25 06:34:06;;;;;;;8.80;5.70;;;;;;;5.99;72.87;100222.71;106037;1256;72765;-76
2024/02/25 06:36:33;;;;;;;9.10;6.30;;;;;;;5.96;72.70;100216.93;105983;1251;60401;-74
2024/02/25 06:39:00;;;;;;;9.90;6.50;;;;;;;5.92;72.55;100221.85;105658;1254;60495;-74
2024/02/25 06:41:27;;;;;;;7.70;5.70;;;;;;;5.88;72.44;100220.23;105996;1257;73723;-76
2024/02/25 06:43:54;;;;;;;11.40;6.90;;;;;;;5.83;72.46;100228.14;105802;1251;70108;-75
2024/02/25 06:46:21;;;;;;;11.00;5.90;;;;;;;5.81;72.42;100217.80;106581;1251;72866;-75
2024/02/25 06:48:48;;;;;;;15.00;6.40;;;;;;;5.78;72.42;100218.79;106254;1251;61183;-72
2024/02/25 06:51:22;;;;;;;9.10;5.70;;;;;;;5.83;72.19;100219.60;105744;1253;60680;-74
2024/02/25 06:53:49;;;;;;;8.60;5.80;;;;;;;5.88;72.03;100212.14;105952;1254;73670;-74
2024/02/25 06:56:15;;;;;;;8.00;5.60;;;;;;;5.86;72.13;100210.36;105708;1255;70324;-74
2024/02/25 06:58:43;;;;;;;10.50;5.90;;;;;;;5.83;71.72;100216.23;105796;1250;72861;-74
2024/02/25 07:01:14;;;;;;;9.60;5.30;;;;;;;5.80;71.60;100216.97;106909;1251;60295;-73
2024/02/25 07:03:45;;;;;;;10.20;5.80;;;;;;;5.78;71.69;100213.30;108824;1251;60410;-74
2024/02/25 07:06:13;;;;;;;8.90;5.50;;;;;;;5.77;71.62;100210.64;107436;1251;72825;-73
2024/02/25 07:08:40;;;;;;;7.10;5.10;;;;;;;5.76;71.56;100216.95;105686;1253;70197;-75
2024/02/25 07:11:16;;;;;;;7.80;5.40;;;;;;;5.82;71.59;100214.57;105774;1254;73152;-75
2024/02/25 07:13:44;;;;;;;7.50;5.10;;;;;;;5.89;71.14;100227.49;106100;1254;60414;-74
2024/02/25 07:16:10;;;;;;;7.90;4.80;;;;;;;5.88;70.89;100217.38;106264;1251;60456;-74
2024/02/25 07:18:37;;;;;;;10.60;5.50;;;;;;;5.85;70.83;100230.11;106168;1254;73845;-79
2024/02/25 07:21:06;;;;;;;8.50;5.70;;;;;;;5.82;70.83;100224.38;106036;1253;70097;-74
2024/02/25 07:23:34;;;;;;;8.60;5.50;;;;;;;5.79;70.70;100240.66;105717;1251;71493;-74
2024/02/25 07:26:01;;;;;;;9.70;5.70;;;;;;;5.75;70.53;100242.56;105906;1257;60457;-75
2024/02/25 07:28:28;;;;;;;10.20;6.00;;;;;;;5.72;70.83;100248.42;105867;1257;61381;-74
2024/02/25 07:30:55;;;;;;;11.40;6.30;;;;;;;5.67;70.89;100241.73;105782;1258;60524;-71
2024/02/25 07:33:22;;;;;;;7.10;5.00;;;;;;;5.70;71.17;100242.61;105766;1257;69043;-75
2024/02/25 07:35:49;;;;;;;12.70;6.10;;;;;;;5.80;71.71;100241.80;106152;1257;72713;-74
2024/02/25 07:38:15;;;;;;;9.50;5.20;;;;;;;5.83;72.28;100242.96;106139;1251;61257;-77
2024/02/25 07:40:42;;;;;;;10.20;5.80;;;;;;;5.81;72.61;100252.09;106272;1254;60512;-75
2024/02/25 07:43:09;;;;;;;13.40;5.40;;;;;;;5.79;72.43;100252.08;106382;1256;73973;-74
2024/02/25 07:45:35;;;;;;;8.80;6.00;;;;;;;5.77;72.66;100248.39;106110;1254;70175;-75
2024/02/25 07:48:03;;;;;;;9.50;5.90;;;;;;;5.77;72.89;100250.00;105993;1251;72745;-74
2024/02/25 07:50:30;;;;;;;10.00;5.70;;;;;;;5.77;72.68;100247.66;106220;1251;60859;-76
2024/02/25 07:52:56;;;;;;;10.80;5.60;;;;;;;5.77;72.77;100245.35;106061;1251;60525;-77
2024/02/25 07:55:25;;;;;;;9.20;5.10;;;;;;;5.85;72.60;100245.09;108681;1253;73657;-76
2024/02/25 07:57:54;;;;;;;8.80;5.90;;;;;;;5.94;72.23;100246.44;109483;1250;68103;-76
2024/02/25 08:00:20;;;;;;;11.60;6.00;;;;;;;5.96;71.71;100250.69;106768;1254;71325;-75
2024/02/25 08:02:47;;;;;;;11.40;5.50;;;;;;;5.96;72.00;100251.61;106212;1251;60452;-75
2024/02/25 08:05:14;;;;;;;8.70;5.50;;;;;;;5.97;71.72;100251.39;106106;1251;60312;-78
2024/02/25 08:07:44;;;;;;;9.10;5.40;;;;;;;5.98;71.70;100250.37;106247;1251;73851;-77
2024/02/25 08:10:11;;;;;;;11.30;5.60;;;;;;;6.00;71.30;100254.41;106391;1256;68943;-77
2024/02/25 08:12:39;;;;;;;8.40;5.10;;;;;;;5.97;70.89;100251.65;106324;1251;72573;-75
2024/02/25 08:15:06;;;;;;;10.50;5.10;;;;;;;5.97;71.08;100248.31;106034;1257;60536;-78
2024/02/25 08:17:33;;;;;;;8.40;5.80;;;;;;;6.00;70.77;100251.65;106079;1254;60676;-75
2024/02/25 08:20:00;;;;;;;9.30;5.10;;;;;;;6.02;70.50;100259.00;105929;1252;73893;-76
2024/02/25 08:22:26;;;;;;;9.80;5.00;;;;;;;6.11;70.35;100246.88;105902;1257;70360;-77
2024/02/25 08:24:53;;;;;;;7.80;4.90;;;;;;;6.20;70.05;100247.13;106144;1251;60524;-78
2024/02/25 08:27:20;;;;;;;12.20;5.80;;;;;;;6.25;69.74;100246.95;106241;1254;60568;-75
2024/02/25 08:29:47;;;;;;;7.50;5.20;;;;;;;6.28;69.84;100248.23;105935;1256;60452;-77
2024/02/25 08:32:14;;;;;;;10.00;5.40;;;;;;;6.31;69.29;100252.91;106198;1256;73706;-77
2024/02/25 08:34:40;;;;;;;9.90;6.20;;;;;;;6.30;69.02;100248.07;106231;1256;70358;-78
2024/02/25 08:37:07;;;;;;;9.00;6.30;;;;;;;6.31;69.30;100244.16;106453;1251;72665;-77
2024/02/25 08:39:34;;;;;;;10.30;5.60;;;;;;;6.33;69.07;100250.83;106188;1254;60538;-77
2024/02/25 08:42:00;;;;;;;10.30;6.60;;;;;;;6.35;68.99;100243.95;106010;1254;60850;-74
2024/02/25 08:44:27;;;;;;;8.50;6.60;;;;;;;6.36;68.84;100239.11;106098;1257;72817;-72
2024/02/25 08:46:54;;;;;;;8.10;6.10;;;;;;;6.37;69.01;100237.14;106054;1251;70362;-75
2024/02/25 08:49:23;;;;;;;10.60;6.50;;;;;;;6.36;68.92;100234.73;108831;1254;72431;-75
2024/02/25 08:51:50;;;;;;;11.00;6.80;;;;;;;6.39;68.96;100230.13;109041;1251;60369;-77
2024/02/25 08:54:17;;;;;;;11.30;6.10;;;;;;;6.47;69.10;100232.21;106371;1257;60342;-78
2024/02/25 08:56:43;;;;;;;12.20;6.70;;;;;;;6.62;68.72;100226.35;106237;1251;73731;-77
2024/02/25 08:59:10;;;;;;;9.90;5.70;;;;;;;6.69;68.63;100235.86;106004;1251;70446;-77
2024/02/25 09:01:37;;;;;;;13.90;8.00;;;;;;;6.72;68.15;100233.85;106084;1254;71719;-76
2024/02/25 09:04:04;;;;;;;10.40;6.30;;;;;;;6.72;68.18;100225.00;106624;1251;60508;-78
2024/02/25 09:06:31;;;;;;;10.90;7.00;;;;;;;6.74;68.27;100222.19;106526;1251;60180;-76
2024/02/25 09:08:58;;;;;;;11.00;6.50;;;;;;;6.78;68.35;100223.61;105888;1251;72962;-78
2024/02/25 09:11:25;;;;;;;8.40;5.70;;;;;;;6.83;68.28;100226.57;106030;1255;69515;-75
2024/02/25 09:13:54;;;;;;;14.80;6.40;;;;;;;6.84;67.71;100236.66;106129;1254;73402;-75
2024/02/25 09:16:21;;;;;;;9.80;5.90;;;;;;;6.81;67.75;100222.50;106098;1254;60406;-76
2024/02/25 09:18:51;;;;;;;9.90;6.40;;;;;;;6.78;67.74;100231.52;106017;1254;60319;-78
2024/02/25 09:21:17;;;;;;;10.20;6.10;;;;;;;6.75;67.72;100229.50;106127;1256;73557;-76
2024/02/25 09:23:44;;;;;;;10.30;6.60;;;;;;;6.72;67.67;100229.26;105909;1251;69287;-77
2024/02/25 09:26:11;;;;;;;9.10;5.60;;;;;;;6.67;67.89;100231.04;106035;1251;72581;-75
2024/02/25 09:28:49;;;;;;;12.80;6.40;;;;;;;6.65;68.01;100211.55;106063;1251;60555;-76
2024/02/25 09:31:19;;;;;;;9.90;6.60;;;;;;;6.66;68.28;100215.14;106570;1254;60093;-76
2024/02/25 09:33:46;;;;;;;9.30;5.80;;;;;;;6.68;67.98;100203.16;106292;1254;74019;-77
2024/02/25 09:36:13;;;;;;;9.10;5.90;;;;;;;6.71;68.23;100201.38;106092;1254;70176;-75
2024/02/25 09:38:40;;;;;;;12.80;7.40;;;;;;;6.75;67.93;100201.73;106105;1251;72503;-77
2024/02/25 09:41:08;;;;;;;8.00;5.90;;;;;;;6.77;68.00;100199.91;107748;1251;59108;-79
2024/02/25 09:43:34;;;;;;;10.10;6.50;;;;;;;6.81;67.49;100207.48;109417;1251;59255;-82
2024/02/25 09:46:01;;;;;;;11.80;6.50;;;;;;;6.85;67.81;100194.33;108053;1251;72306;-78
2024/02/25 09:48:28;;;;;;;9.60;6.20;;;;;;;6.93;67.85;100202.61;106789;1254;68378;-80
2024/02/25 09:50:55;;;;;;;13.10;6.40;;;;;;;6.99;67.57;100199.48;106927;1251;72349;-81
2024/02/25 09:53:22;;;;;;;9.30;6.00;;;;;;;7.04;67.53;100198.95;106377;1251;60429;-82
2024/02/25 09:55:49;;;;;;;12.10;7.40;;;;;;;7.13;67.02;100203.85;106750;1254;60441;-81
2024/02/25 09:58:16;;;;;;;11.90;6.90;;;;;;;7.19;66.93;100200.52;106799;1252;73573;-81
2024/02/25 10:00:44;;;;;;;9.20;6.10;;;;;;;7.22;66.75;100194.30;107465;1256;70129;-82
2024/02/25 10:03:11;;;;;;;11.60;6.70;;;;;;;7.24;66.83;100194.04;106333;1256;71366;-80
2024/02/25 10:05:37;;;;;;;12.30;7.10;;;;;;;7.25;66.58;100207.36;106147;1253;60586;-81
2024/02/25 10:08:12;;;;;;;13.00;6.00;;;;;;;7.22;66.54;100202.71;106218;1251;60403;-79
2024/02/25 10:10:42;;;;;;;10.40;5.90;;;;;;;7.18;66.52;100201.16;106188;1257;73701;-81
2024/02/25 10:13:09;;;;;;;9.80;6.70;;;;;;;7.12;66.59;100189.16;106176;1251;69025;-79
2024/02/25 10:15:38;;;;;;;10.80;6.80;;;;;;;7.08;66.87;100185.11;106253;1253;73017;-81
2024/02/25 10:18:05;;;;;;;11.80;6.70;;;;;;;7.06;67.18;100182.27;106161;1258;60491;-81
2024/02/25 10:20:32;;;;;;;15.90;7.40;;;;;;;7.09;67.29;100184.82;106317;1251;60518;-81
2024/02/25 10:23:17;;;;;;;13.70;7.10;;;;;;;7.12;67.03;100190.95;107087;1257;72915;-77
2024/02/25 10:25:44;;;;;;;16.20;7.50;;;;;;;7.11;66.88;100184.83;108472;1253;69192;-80
2024/02/25 10:28:11;;;;;;;11.30;6.70;;;;;;;7.11;67.06;100182.94;108590;1252;71512;-81
2024/02/25 10:30:38;;;;;;;10.80;6.10;;;;;;;7.13;67.16;100178.54;106313;1257;60428;-82
2024/02/25 10:33:15;;;;;;;10.30;6.60;;;;;;;7.16;67.19;100172.77;106569;1256;60422;-81
2024/02/25 10:35:44;;;;;;;11.80;7.00;;;;;;;7.18;66.80;100170.52;109572;1251;72564;-82
2024/02/25 10:38:11;;;;;;;9.10;5.60;;;;;;;7.21;66.97;100178.16;109227;1251;69125;-82
2024/02/25 10:40:37;;;;;;;10.90;6.20;;;;;;;7.26;66.64;100183.89;107891;1251;71471;-83
2024/02/25 10:43:04;;;;;;;9.50;6.30;;;;;;;7.27;66.69;100183.80;107255;1251;60514;-82
2024/02/25 10:45:30;;;;;;;8.50;6.00;;;;;;;7.27;66.82;100186.58;106487;1251;60914;-80
2024/02/25 10:47:57;;;;;;;11.70;6.80;;;;;;;7.32;66.72;100178.08;106452;1256;268842;-81
2024/02/25 10:52:45;;;;;;;15.80;6.30;;;;;;;7.46;66.54;100180.11;102819;1294;600312;-76
2024/02/25 10:55:13;;;;;;;10.60;6.40;;;;;;;7.52;66.23;100183.67;105154;1266;60042;-77
2024/02/25 10:57:41;;;;;;;9.40;5.90;;;;;;;7.57;66.27;100186.05;105014;1267;59376;-77
2024/02/25 11:00:11;;;;;;;9.80;6.40;;;;;;;7.62;66.02;100183.15;104943;1266;74531;-77
2024/02/25 11:02:40;;;;;;;13.10;6.40;;;;;;;7.64;66.01;100186.48;104959;1271;70522;-76
2024/02/25 11:05:08;;;;;;;11.20;6.40;;;;;;;7.66;66.02;100186.80;104931;1266;74925;-76
2024/02/25 11:07:37;;;;;;;12.00;6.80;;;;;;;7.68;66.41;100180.27;104896;1270;197644;-76
2024/02/25 11:10:18;;;;;;;10.70;6.20;;;;;;;7.71;66.30;100173.33;105147;1263;60961;-75
2024/02/25 11:12:49;;;;;;;10.60;6.00;;;;;;;7.78;66.27;100169.21;105146;1263;72544;-76
2024/02/25 11:15:21;;;;;;;11.40;6.10;;;;;;;7.87;66.11;100170.61;105246;1263;73518;-78
2024/02/25 11:17:50;;;;;;;11.90;6.30;;;;;;;7.98;66.05;100166.45;105642;1260;72626;-78
2024/02/25 11:20:24;;;;;;;10.50;6.10;;;;;;;8.06;65.71;100180.89;105829;1260;61221;-77